Time;durP1;ratioP1;P1;durP2;ratioP2;P2;SDS_P1;SDS_P2;PMS_P1;PMS_P2;Temp;Humidity;BMP_temperature;BMP_pressure;BME280_temperature;BME280_humidity;BME280_pressure;Samples;Min_cycle;Max_cycle;Signal;HPM_P1;HPM_P2
2022/09/04 00:02:38;;;;;;;13.00;11.40;;;;;;;11.63;100.00;99202.73;104494;1279;61283;-73
2022/09/04 00:05:06;;;;;;;13.40;12.10;;;;;;;11.61;100.00;99208.35;104442;1279;75355;-73
2022/09/04 00:07:45;;;;;;;12.90;11.60;;;;;;;11.60;100.00;99209.73;104412;1279;70220;-73
2022/09/04 00:10:17;;;;;;;12.70;11.40;;;;;;;11.58;100.00;99213.73;104400;1279;73155;-72
2022/09/04 00:12:49;;;;;;;13.10;11.40;;;;;;;11.57;100.00;99211.71;104411;1277;61472;-72
2022/09/04 00:15:32;;;;;;;13.40;11.50;;;;;;;11.55;100.00;99213.05;104449;1279;61347;-73
2022/09/04 00:18:22;;;;;;;14.10;12.60;;;;;;;11.54;100.00;99209.24;104475;1278;75454;-73
2022/09/04 00:21:03;;;;;;;13.60;12.20;;;;;;;11.52;100.00;99205.93;104457;1278;68840;-73
2022/09/04 00:23:36;;;;;;;13.50;12.20;;;;;;;11.51;100.00;99208.52;104452;1279;73329;-73
2022/09/04 00:26:13;;;;;;;15.00;12.30;;;;;;;11.50;100.00;99210.73;104451;1278;61258;-73
2022/09/04 00:28:44;;;;;;;13.50;11.40;;;;;;;11.49;100.00;99213.80;104478;1278;61971;-73
2022/09/04 00:31:27;;;;;;;13.10;11.80;;;;;;;11.48;100.00;99213.90;104361;1280;74967;-72
2022/09/04 00:34:22;;;;;;;12.80;11.50;;;;;;;11.46;100.00;99222.39;104581;1273;69203;-72
2022/09/04 00:36:53;;;;;;;13.70;12.40;;;;;;;11.44;100.00;99221.26;104971;1271;73458;-72
2022/09/04 00:39:33;;;;;;;13.50;12.20;;;;;;;11.43;100.00;99226.30;105052;1270;61422;-73
2022/09/04 00:42:07;;;;;;;14.50;13.10;;;;;;;11.42;100.00;99225.63;105125;1270;61173;-73
2022/09/04 00:44:52;;;;;;;12.80;11.70;;;;;;;11.42;100.00;99230.62;105003;1270;76398;-72
2022/09/04 00:47:56;;;;;;;13.10;11.80;;;;;;;11.41;100.00;99232.84;105090;1270;67433;-72
2022/09/04 00:50:55;;;;;;;15.50;14.00;;;;;;;11.41;100.00;99229.30;105092;1270;73365;-72
2022/09/04 00:53:30;;;;;;;15.20;13.60;;;;;;;11.43;100.00;99230.23;105095;1270;61312;-72
2022/09/04 00:56:14;;;;;;;13.50;12.10;;;;;;;11.44;100.00;99227.85;105072;1271;62409;-72
2022/09/04 00:58:48;;;;;;;14.50;13.10;;;;;;;11.46;100.00;99229.86;105066;1270;76542;-72
2022/09/04 01:01:23;;;;;;;14.40;13.10;;;;;;;11.47;100.00;99227.65;104965;1270;70018;-72
2022/09/04 01:04:11;;;;;;;13.40;12.20;;;;;;;11.48;100.00;99222.25;105018;1271;74498;-72
2022/09/04 01:06:58;;;;;;;13.30;12.00;;;;;;;11.48;100.00;99222.42;104998;1270;61452;-72
2022/09/04 01:09:30;;;;;;;13.90;12.60;;;;;;;11.48;100.00;99224.05;105008;1270;62297;-72
2022/09/04 01:12:32;;;;;;;13.90;12.20;;;;;;;11.46;100.00;99228.45;105027;1271;75406;-72
2022/09/04 01:15:11;;;;;;;14.10;12.70;;;;;;;11.44;100.00;99227.84;104476;1278;69039;-72
2022/09/04 01:17:52;;;;;;;13.70;12.40;;;;;;;11.42;100.00;99228.13;104449;1278;73401;-72
2022/09/04 01:20:46;;;;;;;14.30;12.80;;;;;;;11.43;100.00;99227.38;104417;1279;61315;-72
2022/09/04 01:23:15;;;;;;;14.80;13.40;;;;;;;11.44;100.00;99230.71;104430;1278;61265;-72
2022/09/04 01:26:08;;;;;;;15.10;13.70;;;;;;;11.43;100.00;99229.67;104440;1279;75208;-71
2022/09/04 01:29:12;;;;;;;15.20;13.60;;;;;;;11.44;100.00;99235.49;104493;1278;68537;-74
2022/09/04 01:31:43;;;;;;;15.30;13.80;;;;;;;11.44;100.00;99239.91;104456;1277;73340;-73
2022/09/04 01:34:47;;;;;;;15.20;13.80;;;;;;;11.45;100.00;99235.99;104321;1281;61329;-71
2022/09/04 01:37:40;;;;;;;14.90;13.50;;;;;;;11.46;100.00;99236.25;104420;1278;62341;-71
2022/09/04 01:40:56;;;;;;;14.60;13.20;;;;;;;11.47;100.00;99241.02;104435;1278;75836;-72
2022/09/04 01:43:22;;;;;;;14.50;13.20;;;;;;;11.47;100.00;99243.80;104474;1279;70264;-73
2022/09/04 01:46:08;;;;;;;14.90;13.50;;;;;;;11.47;100.00;99240.44;104476;1278;73799;-73
2022/09/04 01:48:58;;;;;;;15.40;13.90;;;;;;;11.47;100.00;99241.15;104331;1281;61280;-73
2022/09/04 01:51:46;;;;;;;15.40;14.00;;;;;;;11.46;100.00;99240.70;104797;1270;62370;-73
2022/09/04 01:54:34;;;;;;;15.00;13.50;;;;;;;11.45;100.00;99239.36;105062;1271;75963;-73
2022/09/04 01:57:06;;;;;;;13.80;12.50;;;;;;;11.43;100.00;99237.17;105073;1271;70463;-73
2022/09/04 01:59:44;;;;;;;15.40;13.90;;;;;;;11.41;100.00;99236.00;105088;1271;74489;-73
2022/09/04 02:02:31;;;;;;;15.20;13.70;;;;;;;11.40;100.00;99234.52;105086;1270;61409;-72
2022/09/04 02:05:08;;;;;;;15.30;13.80;;;;;;;11.39;100.00;99230.83;105071;1271;61374;-71
2022/09/04 02:07:43;;;;;;;15.20;13.80;;;;;;;11.40;100.00;99233.45;105089;1270;76321;-72
2022/09/04 02:10:21;;;;;;;14.90;13.50;;;;;;;11.42;100.00;99232.92;105096;1270;69526;-73
2022/09/04 02:13:13;;;;;;;13.90;12.80;;;;;;;11.46;100.00;99232.02;105105;1271;74413;-72
2022/09/04 02:15:52;;;;;;;14.90;13.40;;;;;;;11.49;100.00;99232.35;105082;1271;61361;-73
2022/09/04 02:18:49;;;;;;;15.30;13.80;;;;;;;11.51;100.00;99230.95;105044;1271;62105;-73
2022/09/04 02:22:11;;;;;;;15.30;13.90;;;;;;;11.54;100.00;99226.81;105110;1271;74533;-73
2022/09/04 02:25:15;;;;;;;15.00;13.50;;;;;;;11.57;100.00;99225.56;104422;1278;70401;-73
2022/09/04 02:28:22;;;;;;;15.30;13.90;;;;;;;11.59;100.00;99227.21;103985;1284;72764;-74
2022/09/04 02:30:59;;;;;;;15.50;14.10;;;;;;;11.61;100.00;99223.48;103920;1284;61408;-72
2022/09/04 02:33:44;;;;;;;14.50;13.10;;;;;;;11.62;100.00;99222.23;103941;1284;62336;-72
2022/09/04 02:36:25;;;;;;;16.00;14.30;;;;;;;11.63;100.00;99223.69;103946;1284;76659;-71
2022/09/04 02:39:12;;;;;;;14.10;12.80;;;;;;;11.65;100.00;99216.82;103932;1285;70643;-72
2022/09/04 02:41:58;;;;;;;14.10;12.80;;;;;;;11.68;100.00;99217.91;104009;1284;74601;-72
2022/09/04 02:44:23;;;;;;;15.50;13.90;;;;;;;11.68;100.00;99219.98;103913;1286;61483;-72
2022/09/04 02:47:19;;;;;;;14.20;12.80;;;;;;;11.69;100.00;99221.02;103905;1284;61743;-72
2022/09/04 02:49:57;;;;;;;15.00;13.50;;;;;;;11.68;100.00;99221.97;103506;1289;76176;-72
2022/09/04 02:52:42;;;;;;;14.30;13.00;;;;;;;11.68;100.00;99222.67;103526;1289;69799;-72
2022/09/04 02:55:45;;;;;;;14.60;13.30;;;;;;;11.68;100.00;99223.92;103531;1289;73414;-72
2022/09/04 02:58:38;;;;;;;15.50;13.90;;;;;;;11.67;100.00;99224.02;103581;1288;61622;-71
2022/09/04 03:01:45;;;;;;;14.10;12.90;;;;;;;11.67;100.00;99225.81;103962;1284;61479;-72
2022/09/04 03:04:48;;;;;;;14.90;13.60;;;;;;;11.66;100.00;99222.80;103343;1290;76300;-72
2022/09/04 03:07:30;;;;;;;14.50;13.20;;;;;;;11.67;100.00;99221.36;103909;1284;70663;-73
2022/09/04 03:10:00;;;;;;;14.70;13.20;;;;;;;11.67;100.00;99216.89;103946;1283;73132;-71
2022/09/04 03:12:36;;;;;;;13.90;12.70;;;;;;;11.67;100.00;99214.37;103890;1284;61384;-74
2022/09/04 03:15:19;;;;;;;15.10;13.70;;;;;;;11.68;100.00;99212.91;103938;1284;61339;-72
2022/09/04 03:17:53;;;;;;;14.80;13.40;;;;;;;11.68;100.00;99210.94;103952;1284;74878;-72
2022/09/04 03:20:30;;;;;;;15.70;14.00;;;;;;;11.69;100.00;99214.09;103952;1284;70875;-73
2022/09/04 03:23:20;;;;;;;15.20;13.70;;;;;;;11.69;100.00;99213.38;103903;1284;73431;-72
2022/09/04 03:26:04;;;;;;;15.00;13.60;;;;;;;11.69;100.00;99211.57;103997;1284;61388;-73
2022/09/04 03:28:39;;;;;;;14.60;13.30;;;;;;;11.68;100.00;99211.80;104297;1281;61316;-72
2022/09/04 03:31:23;;;;;;;14.70;13.30;;;;;;;11.67;100.00;99212.20;104278;1281;77221;-71
2022/09/04 03:34:05;;;;;;;14.50;13.30;;;;;;;11.68;100.00;99210.27;104304;1281;70423;-72
2022/09/04 03:36:48;;;;;;;14.90;13.50;;;;;;;11.68;100.00;99210.96;104269;1281;74625;-71
2022/09/04 03:39:45;;;;;;;14.20;12.90;;;;;;;11.67;100.00;99206.58;104297;1277;61445;-72
2022/09/04 03:42:18;;;;;;;14.50;13.10;;;;;;;11.66;100.00;99209.79;105049;1271;61192;-72
2022/09/04 03:44:53;;;;;;;14.80;13.50;;;;;;;11.67;100.00;99214.37;104927;1271;72963;-72
2022/09/04 03:47:47;;;;;;;15.80;14.30;;;;;;;11.68;100.00;99217.75;104873;1271;69183;-74
2022/09/04 03:50:34;;;;;;;15.10;13.80;;;;;;;11.68;100.00;99216.25;105083;1271;73776;-73
2022/09/04 03:53:12;;;;;;;14.10;12.70;;;;;;;11.68;100.00;99214.52;105038;1271;61408;-72
2022/09/04 03:56:02;;;;;;;15.30;13.90;;;;;;;11.68;100.00;99217.31;105085;1271;61228;-74
2022/09/04 03:58:54;;;;;;;;;;;;;;;11.69;100.00;99220.31;105100;1270;75499;-72
2022/09/04 04:01:23;;;;;;;16.10;13.70;;;;;;;11.68;100.00;99222.48;104506;1277;69044;-73
2022/09/04 04:03:55;;;;;;;14.30;13.00;;;;;;;11.68;100.00;99228.52;104475;1277;74376;-72
2022/09/04 04:06:48;;;;;;;15.40;14.00;;;;;;;11.68;100.00;99230.52;104454;1277;61484;-74
2022/09/04 04:09:44;;;;;;;14.70;13.40;;;;;;;11.66;100.00;99229.21;104459;1277;61422;-73
2022/09/04 04:12:26;;;;;;;14.50;13.20;;;;;;;11.65;100.00;99226.95;104465;1278;75435;-73
2022/09/04 04:15:12;;;;;;;16.10;14.60;;;;;;;11.67;100.00;99229.87;104466;1278;69428;-73
2022/09/04 04:18:01;;;;;;;14.60;13.20;;;;;;;11.69;100.00;99234.76;104485;1278;74508;-73
2022/09/04 04:20:35;;;;;;;16.40;14.80;;;;;;;11.69;100.00;99239.16;104479;1277;61279;-73
2022/09/04 04:23:40;;;;;;;15.30;13.90;;;;;;;11.71;100.00;99242.95;104455;1277;62143;-73
2022/09/04 04:26:51;;;;;;;16.40;14.80;;;;;;;11.73;100.00;99244.80;104422;1277;76094;-73
2022/09/04 04:29:26;;;;;;;16.50;14.90;;;;;;;11.74;100.00;99249.88;103936;1284;70782;-72
2022/09/04 04:32:12;;;;;;;15.80;14.30;;;;;;;11.76;100.00;99256.50;103943;1284;73516;-72
2022/09/04 04:34:53;;;;;;;16.00;14.50;;;;;;;11.80;100.00;99258.36;103891;1284;61412;-72
2022/09/04 04:37:28;;;;;;;15.80;14.30;;;;;;;11.83;100.00;99257.98;103918;1284;61393;-72
2022/09/04 04:40:26;;;;;;;16.30;14.70;;;;;;;11.86;100.00;99260.65;104345;1279;75406;-73
2022/09/04 04:43:38;;;;;;;15.40;13.90;;;;;;;11.86;100.00;99262.06;104422;1279;69497;-74
2022/09/04 04:46:28;;;;;;;15.20;13.60;;;;;;;11.88;100.00;99264.13;103935;1284;73068;-73
2022/09/04 04:49:32;;;;;;;16.10;14.60;;;;;;;11.88;100.00;99264.47;103977;1284;61471;-73
2022/09/04 04:52:15;;;;;;;14.90;13.50;;;;;;;11.89;100.00;99265.42;104003;1284;61965;-71
2022/09/04 04:55:05;;;;;;;16.00;14.40;;;;;;;11.90;100.00;99263.77;103933;1284;75417;-73
2022/09/04 04:57:52;;;;;;;16.20;14.50;;;;;;;11.92;100.00;99270.23;103931;1284;70244;-72
2022/09/04 05:00:38;;;;;;;16.30;14.80;;;;;;;11.93;100.00;99275.29;104033;1284;73347;-73
2022/09/04 05:03:31;;;;;;;16.00;14.50;;;;;;;11.95;100.00;99280.52;103986;1284;61271;-72
2022/09/04 05:06:24;;;;;;;16.30;14.20;;;;;;;11.94;100.00;99290.41;104056;1277;61443;-72
2022/09/04 05:09:36;;;;;;;16.20;14.50;;;;;;;11.93;100.00;99297.23;104490;1277;76852;-72
2022/09/04 05:12:25;;;;;;;15.40;14.00;;;;;;;11.95;100.00;99299.04;103344;1290;69285;-73
2022/09/04 05:15:12;;;;;;;14.20;12.80;;;;;;;11.98;100.00;99304.36;103341;1290;73518;-72
2022/09/04 05:17:50;;;;;;;15.80;14.40;;;;;;;12.00;100.00;99303.45;103297;1290;61385;-72
2022/09/04 05:20:35;;;;;;;15.70;14.10;;;;;;;12.06;100.00;99304.67;103475;1287;61069;-72
2022/09/04 05:23:21;;;;;;;15.60;14.20;;;;;;;12.12;100.00;99308.19;103828;1287;76407;-72
2022/09/04 05:25:50;;;;;;;14.60;13.20;;;;;;;12.19;100.00;99306.49;103721;1287;69302;-73
2022/09/04 05:28:34;;;;;;;15.20;13.60;;;;;;;12.27;100.00;99302.04;103733;1287;74691;-73
2022/09/04 05:31:06;;;;;;;15.10;13.60;;;;;;;12.35;100.00;99310.95;103790;1287;61313;-73
2022/09/04 05:33:47;;;;;;;14.80;13.40;;;;;;;12.38;100.00;99310.30;103773;1287;61319;-74
2022/09/04 05:36:43;;;;;;;13.70;12.50;;;;;;;12.43;100.00;99314.99;103737;1287;76467;-73
2022/09/04 05:39:20;;;;;;;13.40;12.30;;;;;;;12.50;100.00;99320.58;103792;1287;69225;-72
2022/09/04 05:41:46;;;;;;;13.70;12.50;;;;;;;12.55;100.00;99326.27;103763;1287;73799;-72
2022/09/04 05:44:30;;;;;;;14.40;13.00;;;;;;;12.61;100.00;99328.71;103615;1287;62981;-72
2022/09/04 05:47:26;;;;;;;13.50;12.30;;;;;;;12.72;100.00;99328.98;103664;1287;62144;-74
2022/09/04 05:50:09;;;;;;;13.30;12.20;;;;;;;12.88;100.00;99328.77;104594;1270;75602;-74
2022/09/04 05:53:12;;;;;;;12.70;11.50;;;;;;;13.06;100.00;99329.08;104955;1270;70413;-74
2022/09/04 05:56:08;;;;;;;12.40;11.30;;;;;;;13.26;100.00;99331.61;105051;1270;74199;-72
2022/09/04 05:59:01;;;;;;;13.20;12.00;;;;;;;13.42;100.00;99341.67;105083;1270;61389;-73
2022/09/04 06:02:02;;;;;;;13.00;11.70;;;;;;;13.52;100.00;99344.13;105109;1270;61322;-73
2022/09/04 06:05:20;;;;;;;11.00;10.00;;;;;;;13.70;100.00;99344.81;105238;1270;76440;-75
2022/09/04 06:08:03;;;;;;;11.70;10.70;;;;;;;13.70;100.00;99342.45;104471;1277;69388;-74
2022/09/04 06:10:47;;;;;;;12.20;10.90;;;;;;;13.58;100.00;99341.20;104464;1277;74422;-71
2022/09/04 06:13:28;;;;;;;12.30;11.20;;;;;;;13.48;100.00;99345.38;104348;1277;61277;-74
2022/09/04 06:16:06;;;;;;;11.70;10.60;;;;;;;13.39;100.00;99344.91;104537;1277;61451;-73
2022/09/04 06:18:40;;;;;;;12.90;11.70;;;;;;;13.33;100.00;99345.02;104574;1277;75462;-72
2022/09/04 06:21:29;;;;;;;11.70;10.60;;;;;;;13.32;100.00;99347.74;103454;1277;1422842;-73
2022/09/04 06:24:05;;;;;;;12.30;11.10;;;;;;;13.32;100.00;99347.44;103892;1285;73544;-72
2022/09/04 06:26:44;;;;;;;12.60;11.30;;;;;;;13.30;100.00;99352.88;103885;1285;61436;-72
2022/09/04 06:29:42;;;;;;;11.40;10.30;;;;;;;13.26;100.00;99350.17;103856;1285;62263;-74
2022/09/04 06:32:19;;;;;;;11.50;10.60;;;;;;;13.24;100.00;99347.57;103831;1285;75294;-73
2022/09/04 06:35:05;;;;;;;12.60;11.30;;;;;;;13.21;100.00;99347.27;103866;1285;69240;-74
2022/09/04 06:37:41;;;;;;;12.20;11.10;;;;;;;13.25;100.00;99350.04;103812;1285;73631;-73
2022/09/04 06:40:20;;;;;;;12.70;11.50;;;;;;;13.31;100.00;99350.48;103856;1285;61516;-74
2022/09/04 06:43:00;;;;;;;12.50;11.30;;;;;;;13.38;100.00;99362.27;103854;1285;61366;-73
2022/09/04 06:45:32;;;;;;;;;;;;;;;13.46;100.00;99358.18;104285;1279;75871;-73
2022/09/04 06:48:08;;;;;;;12.20;11.00;;;;;;;13.56;100.00;99360.09;104377;1279;69555;-72
2022/09/04 06:51:00;;;;;;;12.00;10.80;;;;;;;13.77;100.00;99358.34;104372;1279;74520;-72
2022/09/04 06:53:27;;;;;;;14.00;12.70;;;;;;;14.04;100.00;99366.89;104390;1279;61749;-72
2022/09/04 06:56:09;;;;;;;12.20;11.10;;;;;;;14.26;100.00;99370.77;104398;1279;62375;-74
2022/09/04 06:58:45;;;;;;;11.80;10.80;;;;;;;14.61;100.00;99372.96;104394;1279;76249;-74
2022/09/04 07:01:24;;;;;;;12.30;11.20;;;;;;;14.83;100.00;99379.30;104501;1271;71236;-73
2022/09/04 07:04:06;;;;;;;13.10;11.70;;;;;;;14.91;100.00;99379.55;104955;1273;72727;-75
2022/09/04 07:06:46;;;;;;;12.00;10.90;;;;;;;14.85;100.00;99380.01;105116;1270;61286;-75
2022/09/04 07:09:19;;;;;;;;;;;;;;;14.85;100.00;99381.09;105154;1270;62379;-75
2022/09/04 07:11:48;;;;;;;11.50;10.40;;;;;;;14.86;100.00;99381.34;105080;1270;75340;-73
2022/09/04 07:14:44;;;;;;;12.00;10.80;;;;;;;14.84;100.00;99381.32;105085;1270;68733;-74
2022/09/04 07:17:17;;;;;;;11.40;10.40;;;;;;;14.82;100.00;99382.56;105076;1270;73236;-74
2022/09/04 07:23:45;;;;;;;11.20;10.20;;;;;;;14.62;100.00;99385.76;105122;1270;61228;-74
2022/09/04 07:26:29;;;;;;;11.10;10.10;;;;;;;14.55;100.00;99385.79;104490;1277;75413;-70
2022/09/04 07:29:22;;;;;;;11.40;10.40;;;;;;;14.45;100.00;99396.15;104586;1277;70263;-73
2022/09/04 07:32:10;;;;;;;10.30;9.30;;;;;;;14.36;100.00;99398.67;103992;1284;74399;-73
2022/09/04 07:35:03;;;;;;;10.80;9.90;;;;;;;14.25;100.00;99402.63;104085;1284;61427;-72
2022/09/04 07:37:51;;;;;;;11.50;10.30;;;;;;;14.22;100.00;99406.98;103640;1285;61385;-73
2022/09/04 07:40:25;;;;;;;10.90;10.00;;;;;;;14.21;100.00;99409.38;103955;1284;76392;-72
2022/09/04 07:43:09;;;;;;;11.50;10.40;;;;;;;14.24;100.00;99413.48;103993;1284;69446;-73
2022/09/04 07:45:50;;;;;;;11.40;10.40;;;;;;;14.25;100.00;99416.73;103956;1284;73506;-72
2022/09/04 07:48:33;;;;;;;12.50;11.30;;;;;;;14.27;100.00;99419.85;104002;1284;61481;-73
2022/09/04 07:51:09;;;;;;;12.40;11.20;;;;;;;14.25;100.00;99419.81;104013;1284;61386;-73
2022/09/04 07:53:56;;;;;;;10.80;9.80;;;;;;;14.21;100.00;99422.46;104002;1284;76412;-73
2022/09/04 07:56:56;;;;;;;11.60;10.30;;;;;;;14.20;100.00;99421.96;103878;1284;70586;-73
2022/09/04 07:59:54;;;;;;;11.60;10.60;;;;;;;14.23;100.00;99424.23;103903;1284;74410;-73
2022/09/04 08:02:40;;;;;;;16.10;10.80;;;;;;;14.24;100.00;99427.58;103574;1285;61516;-73
2022/09/04 08:05:09;;;;;;;11.10;10.10;;;;;;;14.28;100.00;99429.23;103952;1285;62540;-72
2022/09/04 08:07:39;;;;;;;11.90;10.80;;;;;;;14.35;100.00;99438.74;103604;1287;75059;-72
2022/09/04 08:10:31;;;;;;;11.40;10.20;;;;;;;14.37;100.00;99438.20;104370;1277;69788;-72
2022/09/04 08:13:17;;;;;;;11.70;10.70;;;;;;;14.34;100.00;99445.74;104499;1277;72398;-72
2022/09/04 08:15:53;;;;;;;12.00;10.90;;;;;;;14.36;100.00;99447.23;104451;1277;61381;-72
2022/09/04 08:18:27;;;;;;;11.80;10.70;;;;;;;14.43;100.00;99455.47;104520;1277;61412;-72
2022/09/04 08:21:34;;;;;;;11.60;10.50;;;;;;;14.50;100.00;99466.39;104492;1277;73497;-72
2022/09/04 08:24:20;;;;;;;10.50;9.50;;;;;;;14.56;100.00;99473.50;104534;1277;69649;-72
2022/09/04 08:27:13;;;;;;;11.60;10.50;;;;;;;14.58;100.00;99480.69;104485;1277;74532;-72
2022/09/04 08:29:56;;;;;;;10.30;9.30;;;;;;;14.63;100.00;99485.96;104495;1278;61398;-73
2022/09/04 08:32:44;;;;;;;11.40;10.40;;;;;;;14.70;100.00;99490.10;104502;1277;61614;-73
2022/09/04 08:35:20;;;;;;;10.70;9.80;;;;;;;14.73;100.00;99493.26;104484;1277;75575;-71
2022/09/04 08:38:11;;;;;;;10.80;9.80;;;;;;;14.79;100.00;99497.15;104486;1277;70392;-72
2022/09/04 08:41:08;;;;;;;11.90;10.90;;;;;;;14.82;100.00;99495.27;104918;1268;73473;-74
2022/09/04 08:44:08;;;;;;;11.40;10.20;;;;;;;14.87;100.00;99493.59;105106;1270;61336;-73
2022/09/04 08:47:05;;;;;;;10.90;9.90;;;;;;;14.93;100.00;99488.52;105098;1270;61268;-74
2022/09/04 08:50:08;;;;;;;10.30;9.30;;;;;;;14.95;100.00;99489.08;105119;1270;75330;-73
2022/09/04 08:53:14;;;;;;;10.80;9.90;;;;;;;14.94;100.00;99490.95;105092;1270;70199;-71
2022/09/04 08:56:05;;;;;;;10.70;9.70;;;;;;;15.04;100.00;99494.98;105070;1270;71911;-74
2022/09/04 08:58:43;;;;;;;10.40;9.30;;;;;;;15.13;100.00;99497.92;105085;1270;61643;-74
2022/09/04 09:01:47;;;;;;;10.00;9.10;;;;;;;15.18;100.00;99496.10;105066;1270;61357;-74
2022/09/04 09:04:35;;;;;;;10.70;9.70;;;;;;;15.21;100.00;99496.00;105210;1270;75340;-73
2022/09/04 09:07:18;;;;;;;11.70;10.50;;;;;;;15.26;100.00;99501.55;105065;1270;69559;-73
2022/09/04 09:10:08;;;;;;;10.30;9.40;;;;;;;15.31;100.00;99512.05;105134;1270;74358;-72
2022/09/04 09:13:16;;;;;;;11.40;10.30;;;;;;;15.34;100.00;99512.56;105098;1270;61350;-72
2022/09/04 09:16:06;;;;;;;9.20;8.30;;;;;;;15.38;100.00;99514.54;105112;1270;62019;-72
2022/09/04 09:19:21;;;;;;;11.50;9.50;;;;;;;15.44;100.00;99515.70;105012;1270;75344;-73
2022/09/04 09:22:07;;;;;;;10.20;9.30;;;;;;;15.54;100.00;99522.77;104471;1277;69493;-72
2022/09/04 09:24:51;;;;;;;10.10;9.10;;;;;;;15.65;100.00;99521.58;104479;1277;73466;-72
2022/09/04 09:28:06;;;;;;;10.20;9.40;;;;;;;15.69;100.00;99522.86;104503;1277;61472;-73
2022/09/04 09:30:56;;;;;;;11.10;10.00;;;;;;;15.68;100.00;99525.81;104463;1277;61296;-73
2022/09/04 09:34:01;;;;;;;10.70;9.70;;;;;;;15.65;100.00;99526.02;104419;1278;76353;-73
2022/09/04 09:37:02;;;;;;;9.70;8.80;;;;;;;15.63;100.00;99522.27;104047;1278;68787;-72
2022/09/04 09:39:36;;;;;;;10.90;9.80;;;;;;;15.61;100.00;99522.06;104482;1277;74338;-72
2022/09/04 09:42:34;;;;;;;10.00;9.10;;;;;;;15.56;100.00;99524.57;104495;1277;61394;-72
2022/09/04 09:45:23;;;;;;;10.40;9.20;;;;;;;15.54;100.00;99522.62;104629;1278;62158;-72
2022/09/04 09:48:23;;;;;;;9.50;8.60;;;;;;;15.52;100.00;99522.22;104686;1278;76288;-72
2022/09/04 09:51:27;;;;;;;10.60;9.40;;;;;;;15.52;100.00;99515.96;104693;1277;70566;-74
2022/09/04 09:54:22;;;;;;;11.00;9.90;;;;;;;15.48;100.00;99514.29;104594;1278;73359;-72
2022/09/04 09:57:25;;;;;;;10.40;9.40;;;;;;;15.48;100.00;99513.58;104680;1278;61406;-73
2022/09/04 10:00:16;;;;;;;11.10;10.10;;;;;;;15.50;100.00;99516.98;105186;1270;61299;-71
2022/09/04 10:03:00;;;;;;;10.70;9.70;;;;;;;15.50;100.00;99516.50;105104;1270;76275;-71
2022/09/04 10:05:51;;;;;;;12.70;10.10;;;;;;;15.55;100.00;99517.70;105113;1270;69363;-72
2022/09/04 10:08:23;;;;;;;10.20;9.30;;;;;;;15.62;100.00;99518.77;105071;1270;73232;-72
2022/09/04 10:11:15;;;;;;;10.10;9.20;;;;;;;15.69;100.00;99524.09;104965;1270;62646;-73
2022/09/04 10:14:18;;;;;;;10.30;9.40;;;;;;;15.77;100.00;99523.10;105120;1270;62317;-75
2022/09/04 10:16:56;;;;;;;9.80;8.90;;;;;;;15.89;100.00;99523.64;105062;1270;76162;-73
2022/09/04 10:19:45;;;;;;;9.90;9.00;;;;;;;16.01;100.00;99522.27;105042;1270;69264;-73
2022/09/04 10:22:43;;;;;;;11.10;9.90;;;;;;;16.15;100.00;99520.40;105007;1270;73319;-73
2022/09/04 10:25:46;;;;;;;10.60;9.70;;;;;;;16.36;100.00;99516.54;104720;1277;61321;-73
2022/09/04 10:28:47;;;;;;;11.40;10.30;;;;;;;16.65;100.00;99521.73;104740;1277;61174;-74
2022/09/04 10:31:37;;;;;;;12.30;11.20;;;;;;;16.91;100.00;99520.58;104791;1277;75237;-73
2022/09/04 10:34:09;;;;;;;10.60;9.80;;;;;;;17.15;100.00;99524.17;104743;1277;69499;-74
2022/09/04 10:36:35;;;;;;;11.10;9.90;;;;;;;17.38;100.00;99528.98;104651;1277;74399;-73
2022/09/04 10:42:21;;;;;;;9.50;8.70;;;;;;;17.83;100.00;99528.08;104767;1275;61297;-77
2022/09/04 10:45:03;;;;;;;9.30;8.50;;;;;;;18.00;100.00;99530.77;104738;1277;76261;-74
2022/09/04 10:47:31;;;;;;;10.50;9.60;;;;;;;18.07;100.00;99527.74;104657;1277;69652;-74
2022/09/04 10:50:11;;;;;;;8.90;8.20;;;;;;;18.12;100.00;99532.39;104658;1277;74347;-74
2022/09/04 10:53:05;;;;;;;10.20;9.20;;;;;;;18.19;100.00;99532.77;104656;1277;61981;-73
2022/09/04 10:55:42;;;;;;;9.50;8.60;;;;;;;18.21;100.00;99536.19;104683;1277;61685;-73
2022/09/04 10:58:26;;;;;;;10.90;9.80;;;;;;;18.23;100.00;99538.80;104649;1277;75455;-73
2022/09/04 11:01:37;;;;;;;11.40;10.30;;;;;;;18.22;100.00;99542.27;104691;1277;70724;-73
2022/09/04 11:04:33;;;;;;;10.60;9.60;;;;;;;18.22;100.00;99544.09;104886;1270;74686;-75
2022/09/04 11:07:09;;;;;;;11.00;9.40;;;;;;;18.25;100.00;99543.42;104891;1270;61403;-73
2022/09/04 11:09:53;;;;;;;9.20;8.30;;;;;;;18.21;100.00;99541.83;104894;1270;61271;-73
2022/09/04 11:12:38;;;;;;;8.50;7.70;;;;;;;18.13;100.00;99546.85;104917;1270;76268;-72
2022/09/04 11:15:32;;;;;;;9.20;7.50;;;;;;;18.05;100.00;99548.49;104889;1270;70530;-72
2022/09/04 11:18:36;;;;;;;8.10;7.40;;;;;;;17.80;100.00;99554.23;105046;1270;72962;-73
2022/09/04 11:21:33;;;;;;;8.30;7.50;;;;;;;17.61;100.00;99551.20;105037;1270;61388;-73
2022/09/04 11:24:34;;;;;;;8.60;8.00;;;;;;;17.44;100.00;99553.80;105078;1270;61343;-73
2022/09/04 11:27:23;;;;;;;9.00;8.20;;;;;;;17.32;100.00;99551.94;105097;1270;74947;-73
2022/09/04 11:29:53;;;;;;;8.80;8.00;;;;;;;17.16;100.00;99550.80;105068;1270;70613;-74
2022/09/04 11:32:39;;;;;;;11.90;8.20;;;;;;;17.03;100.00;99549.89;105083;1270;73375;-73
2022/09/04 11:35:28;;;;;;;8.80;8.00;;;;;;;16.90;100.00;99552.98;104469;1278;61298;-73
2022/09/04 11:38:07;;;;;;;8.10;7.30;;;;;;;16.76;100.00;99554.70;104466;1277;61282;-74
2022/09/04 11:40:55;;;;;;;9.50;8.40;;;;;;;16.64;100.00;99552.23;104473;1278;76102;-73
2022/09/04 11:43:42;;;;;;;9.80;8.90;;;;;;;16.57;100.00;99550.87;104396;1278;69285;-72
2022/09/04 11:46:48;;;;;;;8.70;7.90;;;;;;;16.61;100.00;99549.27;104446;1278;74725;-72
2022/09/04 11:49:30;;;;;;;9.80;7.90;;;;;;;16.69;100.00;99547.56;104473;1277;61457;-74
2022/09/04 11:52:13;;;;;;;8.80;8.10;;;;;;;16.77;100.00;99542.44;104470;1277;61429;-72
2022/09/04 11:54:57;;;;;;;8.70;7.80;;;;;;;16.88;100.00;99531.61;104482;1278;76213;-73
2022/09/04 11:57:26;;;;;;;9.20;8.50;;;;;;;16.99;100.00;99530.36;104460;1278;70280;-73
2022/09/04 12:00:11;;;;;;;9.60;8.80;;;;;;;17.08;100.00;99529.58;104439;1277;74145;-73
2022/09/04 12:03:18;;;;;;;9.70;8.80;;;;;;;17.23;100.00;99527.60;104585;1278;61365;-72
2022/09/04 12:06:02;;;;;;;9.00;8.20;;;;;;;17.48;100.00;99526.33;104462;1277;61408;-74
2022/09/04 12:08:53;;;;;;;9.80;8.90;;;;;;;17.67;100.00;99527.52;104470;1277;76341;-73
2022/09/04 12:11:53;;;;;;;10.00;9.00;;;;;;;17.80;100.00;99531.85;104458;1277;69298;-72
2022/09/04 12:14:53;;;;;;;9.50;8.70;;;;;;;17.78;100.00;99537.67;104950;1270;74632;-73
2022/09/04 12:17:25;;;;;;;9.60;8.70;;;;;;;17.76;100.00;99541.99;105069;1270;61173;-72
2022/09/04 12:20:22;;;;;;;9.50;8.60;;;;;;;17.75;100.00;99542.95;105073;1270;61282;-75
2022/09/04 12:23:16;;;;;;;10.20;8.50;;;;;;;17.70;100.00;99541.46;105073;1268;75380;-72
2022/09/04 12:26:01;;;;;;;9.80;8.90;;;;;;;17.61;100.00;99540.96;104987;1270;69384;-73
2022/09/04 12:28:55;;;;;;;10.30;9.20;;;;;;;17.58;100.00;99540.85;105010;1270;72591;-72
2022/09/04 12:31:42;;;;;;;9.60;8.80;;;;;;;17.61;100.00;99545.64;105207;1270;61740;-74
2022/09/04 12:34:30;;;;;;;8.90;8.00;;;;;;;17.61;100.00;99550.88;105319;1270;61386;-73
2022/09/04 12:37:42;;;;;;;9.90;8.90;;;;;;;17.60;100.00;99549.38;105249;1270;76506;-74
2022/09/04 12:40:27;;;;;;;9.10;8.40;;;;;;;17.59;100.00;99548.20;104785;1277;68851;-74
2022/09/04 12:43:05;;;;;;;7.90;7.20;;;;;;;17.57;100.00;99542.95;104815;1277;73422;-74